sensor_id;sensor_type;location;lat;lon;timestamp;temperature;humidity
18690;DHT22;9782;52.930;15.562;2023-04-24T05:16:03;13.60;1.00
18690;DHT22;9782;52.930;15.562;2023-04-24T05:18:30;13.70;99.90
18690;DHT22;9782;52.930;15.562;2023-04-24T05:20:57;13.80;99.90
18690;DHT22;9782;52.930;15.562;2023-04-24T05:23:24;13.80;99.90
18690;DHT22;9782;52.930;15.562;2023-04-24T05:25:51;13.80;99.90
18690;DHT22;9782;52.930;15.562;2023-04-24T05:28:18;13.70;99.90
18690;DHT22;9782;52.930;15.562;2023-04-24T05:30:45;13.70;99.90
18690;DHT22;9782;52.930;15.562;2023-04-24T05:33:13;13.60;99.90
18690;DHT22;9782;52.930;15.562;2023-04-24T05:35:40;13.50;99.90
18690;DHT22;9782;52.930;15.562;2023-04-24T05:38:11;13.50;99.90
18690;DHT22;9782;52.930;15.562;2023-04-24T05:40:38;13.50;99.90
18690;DHT22;9782;52.930;15.562;2023-04-24T05:43:05;13.50;99.90
18690;DHT22;9782;52.930;15.562;2023-04-24T05:45:32;13.50;99.90
18690;DHT22;9782;52.930;15.562;2023-04-24T05:48:01;13.60;99.90
18690;DHT22;9782;52.930;15.562;2023-04-24T05:50:29;13.80;1.00
18690;DHT22;9782;52.930;15.562;2023-04-24T05:52:56;14.20;1.00
18690;DHT22;9782;52.930;15.562;2023-04-24T05:55:24;14.60;99.90
18690;DHT22;9782;52.930;15.562;2023-04-24T05:57:51;14.80;99.90
18690;DHT22;9782;52.930;15.562;2023-04-24T06:00:18;15.00;99.90
18690;DHT22;9782;52.930;15.562;2023-04-24T06:02:46;15.20;13.10
18690;DHT22;9782;52.930;15.562;2023-04-24T06:05:13;15.40;1.00
18690;DHT22;9782;52.930;15.562;2023-04-24T06:07:41;15.50;1.00
18690;DHT22;9782;52.930;15.562;2023-04-24T06:10:09;15.60;1.00
18690;DHT22;9782;52.930;15.562;2023-04-24T06:12:36;15.50;1.00
18690;DHT22;9782;52.930;15.562;2023-04-24T06:15:04;15.70;1.00
18690;DHT22;9782;52.930;15.562;2023-04-24T06:17:31;15.90;1.00
18690;DHT22;9782;52.930;15.562;2023-04-24T06:19:58;16.20;99.90
18690;DHT22;9782;52.930;15.562;2023-04-24T06:22:25;16.30;99.90
18690;DHT22;9782;52.930;15.562;2023-04-24T06:24:53;16.50;52.80
18690;DHT22;9782;52.930;15.562;2023-04-24T06:27:21;16.60;1.00
18690;DHT22;9782;52.930;15.562;2023-04-24T06:29:47;16.70;1.00
18690;DHT22;9782;52.930;15.562;2023-04-24T06:32:20;16.70;1.00
18690;DHT22;9782;52.930;15.562;2023-04-24T06:34:47;16.80;1.00
18690;DHT22;9782;52.930;15.562;2023-04-24T06:37:14;16.90;1.00
18690;DHT22;9782;52.930;15.562;2023-04-24T06:39:41;16.80;1.00
18690;DHT22;9782;52.930;15.562;2023-04-24T06:42:10;16.60;1.00
18690;DHT22;9782;52.930;15.562;2023-04-24T06:44:37;16.50;1.00
18690;DHT22;9782;52.930;15.562;2023-04-24T06:47:06;16.30;1.00
18690;DHT22;9782;52.930;15.562;2023-04-24T06:49:34;16.30;1.00
18690;DHT22;9782;52.930;15.562;2023-04-24T06:52:01;16.20;1.00
18690;DHT22;9782;52.930;15.562;2023-04-24T06:54:28;16.20;1.00
18690;DHT22;9782;52.930;15.562;2023-04-24T06:56:55;16.10;1.00
18690;DHT22;9782;52.930;15.562;2023-04-24T06:59:24;16.10;1.00
18690;DHT22;9782;52.930;15.562;2023-04-24T07:01:51;16.00;1.00
18690;DHT22;9782;52.930;15.562;2023-04-24T07:04:18;16.00;1.00
18690;DHT22;9782;52.930;15.562;2023-04-24T07:06:45;16.10;1.00
18690;DHT22;9782;52.930;15.562;2023-04-24T07:09:12;16.10;1.00
18690;DHT22;9782;52.930;15.562;2023-04-24T07:11:41;16.20;1.00
18690;DHT22;9782;52.930;15.562;2023-04-24T07:14:08;16.40;1.00
18690;DHT22;9782;52.930;15.562;2023-04-24T07:16:36;16.70;1.00
18690;DHT22;9782;52.930;15.562;2023-04-24T07:19:03;17.00;99.90
18690;DHT22;9782;52.930;15.562;2023-04-24T07:21:30;17.20;99.90
18690;DHT22;9782;52.930;15.562;2023-04-24T07:23:57;17.60;84.40
18690;DHT22;9782;52.930;15.562;2023-04-24T07:26:25;18.10;1.00
18690;DHT22;9782;52.930;15.562;2023-04-24T07:28:52;18.30;99.90
18690;DHT22;9782;52.930;15.562;2023-04-24T07:31:19;18.50;99.90
18690;DHT22;9782;52.930;15.562;2023-04-24T07:33:48;18.50;99.90
18690;DHT22;9782;52.930;15.562;2023-04-24T07:36:16;18.60;96.80
18690;DHT22;9782;52.930;15.562;2023-04-24T07:38:44;18.70;44.20
18690;DHT22;9782;52.930;15.562;2023-04-24T07:41:11;18.80;1.00
18690;DHT22;9782;52.930;15.562;2023-04-24T07:43:38;18.90;1.00
18690;DHT22;9782;52.930;15.562;2023-04-24T07:46:05;18.90;1.00
18690;DHT22;9782;52.930;15.562;2023-04-24T07:48:33;18.80;1.00
18690;DHT22;9782;52.930;15.562;2023-04-24T07:51:01;18.80;1.00
18690;DHT22;9782;52.930;15.562;2023-04-24T07:53:28;18.80;99.90
18690;DHT22;9782;52.930;15.562;2023-04-24T07:55:56;18.70;99.90
18690;DHT22;9782;52.930;15.562;2023-04-24T07:58:23;18.60;1.00
18690;DHT22;9782;52.930;15.562;2023-04-24T08:00:50;18.60;1.00
18690;DHT22;9782;52.930;15.562;2023-04-24T08:03:17;18.50;1.00
18690;DHT22;9782;52.930;15.562;2023-04-24T08:05:45;18.50;1.00
18690;DHT22;9782;52.930;15.562;2023-04-24T08:08:14;18.50;1.00
18690;DHT22;9782;52.930;15.562;2023-04-24T08:10:41;18.40;1.00
18690;DHT22;9782;52.930;15.562;2023-04-24T08:13:08;18.30;1.00
18690;DHT22;9782;52.930;15.562;2023-04-24T08:15:36;18.20;1.00
18690;DHT22;9782;52.930;15.562;2023-04-24T08:18:04;18.10;1.00
18690;DHT22;9782;52.930;15.562;2023-04-24T08:20:31;18.00;1.00
18690;DHT22;9782;52.930;15.562;2023-04-24T08:22:58;18.00;1.00
18690;DHT22;9782;52.930;15.562;2023-04-24T08:25:26;17.90;1.00
18690;DHT22;9782;52.930;15.562;2023-04-24T08:27:53;17.80;1.00
18690;DHT22;9782;52.930;15.562;2023-04-24T08:30:20;17.80;1.00
18690;DHT22;9782;52.930;15.562;2023-04-24T08:32:47;17.90;1.00
18690;DHT22;9782;52.930;15.562;2023-04-24T08:35:15;17.90;1.00
18690;DHT22;9782;52.930;15.562;2023-04-24T08:37:41;17.90;1.00
18690;DHT22;9782;52.930;15.562;2023-04-24T08:40:12;17.90;1.00
18690;DHT22;9782;52.930;15.562;2023-04-24T08:42:43;18.00;1.00
18690;DHT22;9782;52.930;15.562;2023-04-24T08:45:11;18.20;1.00
18690;DHT22;9782;52.930;15.562;2023-04-24T08:47:40;18.20;99.90
18690;DHT22;9782;52.930;15.562;2023-04-24T08:50:08;18.20;99.90
18690;DHT22;9782;52.930;15.562;2023-04-24T08:52:35;18.20;99.90
18690;DHT22;9782;52.930;15.562;2023-04-24T08:55:03;18.10;99.90
18690;DHT22;9782;52.930;15.562;2023-04-24T08:57:31;18.10;99.90
18690;DHT22;9782;52.930;15.562;2023-04-24T09:00:00;18.20;99.90
18690;DHT22;9782;52.930;15.562;2023-04-24T09:02:28;18.50;99.90
18690;DHT22;9782;52.930;15.562;2023-04-24T09:04:57;18.70;99.90
18690;DHT22;9782;52.930;15.562;2023-04-24T09:07:25;19.00;99.90
18690;DHT22;9782;52.930;15.562;2023-04-24T09:09:54;19.20;99.90
18690;DHT22;9782;52.930;15.562;2023-04-24T09:12:21;19.30;57.10
18690;DHT22;9782;52.930;15.562;2023-04-24T09:14:49;19.30;1.00
18690;DHT22;9782;52.930;15.562;2023-04-24T09:17:18;19.10;1.00
18690;DHT22;9782;52.930;15.562;2023-04-24T09:19:45;18.90;1.00
18690;DHT22;9782;52.930;15.562;2023-04-24T09:22:12;18.70;1.00
18690;DHT22;9782;52.930;15.562;2023-04-24T09:24:39;18.50;1.00
18690;DHT22;9782;52.930;15.562;2023-04-24T09:27:07;18.20;1.00
18690;DHT22;9782;52.930;15.562;2023-04-24T09:29:34;17.90;1.00
18690;DHT22;9782;52.930;15.562;2023-04-24T09:32:20;17.80;99.90
18690;DHT22;9782;52.930;15.562;2023-04-24T09:34:48;17.80;99.90
18690;DHT22;9782;52.930;15.562;2023-04-24T09:37:28;18.00;99.90
18690;DHT22;9782;52.930;15.562;2023-04-24T09:40:08;18.20;99.90
18690;DHT22;9782;52.930;15.562;2023-04-24T09:42:35;18.30;99.90
18690;DHT22;9782;52.930;15.562;2023-04-24T09:45:03;18.40;78.20
18690;DHT22;9782;52.930;15.562;2023-04-24T09:47:37;18.60;41.70
18690;DHT22;9782;52.930;15.562;2023-04-24T09:50:12;18.70;21.20
18690;DHT22;9782;52.930;15.562;2023-04-24T09:52:41;18.80;1.00
18690;DHT22;9782;52.930;15.562;2023-04-24T09:55:19;18.80;1.00
18690;DHT22;9782;52.930;15.562;2023-04-24T09:57:53;18.60;1.00
18690;DHT22;9782;52.930;15.562;2023-04-24T10:00:25;18.60;1.00
18690;DHT22;9782;52.930;15.562;2023-04-24T10:03:01;18.60;1.00
18690;DHT22;9782;52.930;15.562;2023-04-24T10:05:29;18.50;14.50
18690;DHT22;9782;52.930;15.562;2023-04-24T10:07:57;18.60;40.50
18690;DHT22;9782;52.930;15.562;2023-04-24T10:10:24;18.70;42.70
18690;DHT22;9782;52.930;15.562;2023-04-24T10:12:52;18.80;52.60
18690;DHT22;9782;52.930;15.562;2023-04-24T10:15:20;18.90;13.80
18690;DHT22;9782;52.930;15.562;2023-04-24T10:17:48;19.00;1.00
18690;DHT22;9782;52.930;15.562;2023-04-24T10:20:20;19.10;1.00
18690;DHT22;9782;52.930;15.562;2023-04-24T10:22:49;19.10;1.00
18690;DHT22;9782;52.930;15.562;2023-04-24T10:25:19;19.10;1.00
18690;DHT22;9782;52.930;15.562;2023-04-24T10:27:47;19.00;1.00
18690;DHT22;9782;52.930;15.562;2023-04-24T10:30:15;19.00;1.00
18690;DHT22;9782;52.930;15.562;2023-04-24T10:32:42;18.90;1.00
18690;DHT22;9782;52.930;15.562;2023-04-24T10:35:10;19.00;1.00
18690;DHT22;9782;52.930;15.562;2023-04-24T10:37:42;19.20;1.00
18690;DHT22;9782;52.930;15.562;2023-04-24T10:40:10;19.30;1.00
18690;DHT22;9782;52.930;15.562;2023-04-24T10:42:40;19.50;1.00
18690;DHT22;9782;52.930;15.562;2023-04-24T10:45:16;19.60;1.00
18690;DHT22;9782;52.930;15.562;2023-04-24T10:47:51;19.70;1.00
18690;DHT22;9782;52.930;15.562;2023-04-24T10:50:18;19.80;1.00
18690;DHT22;9782;52.930;15.562;2023-04-24T10:52:47;20.20;1.00
18690;DHT22;9782;52.930;15.562;2023-04-24T10:55:18;20.40;1.00
18690;DHT22;9782;52.930;15.562;2023-04-24T10:58:05;20.70;1.00
18690;DHT22;9782;52.930;15.562;2023-04-24T11:00:32;20.80;1.00
18690;DHT22;9782;52.930;15.562;2023-04-24T11:03:04;20.70;1.00
18690;DHT22;9782;52.930;15.562;2023-04-24T11:05:50;20.80;1.00
18690;DHT22;9782;52.930;15.562;2023-04-24T11:08:24;20.80;1.00
18690;DHT22;9782;52.930;15.562;2023-04-24T11:10:59;20.90;1.00
18690;DHT22;9782;52.930;15.562;2023-04-24T11:16:19;21.20;1.00
18690;DHT22;9782;52.930;15.562;2023-04-24T11:18:50;21.50;1.00
18690;DHT22;9782;52.930;15.562;2023-04-24T11:21:20;21.40;1.00
18690;DHT22;9782;52.930;15.562;2023-04-24T11:23:50;21.70;99.90
18690;DHT22;9782;52.930;15.562;2023-04-24T11:26:18;21.70;99.90
18690;DHT22;9782;52.930;15.562;2023-04-24T11:28:49;21.60;99.90
18690;DHT22;9782;52.930;15.562;2023-04-24T11:31:37;21.60;99.90
18690;DHT22;9782;52.930;15.562;2023-04-24T11:34:08;21.50;99.90
18690;DHT22;9782;52.930;15.562;2023-04-24T11:36:36;21.40;99.90
18690;DHT22;9782;52.930;15.562;2023-04-24T11:39:04;21.50;99.90
18690;DHT22;9782;52.930;15.562;2023-04-24T11:41:32;21.60;99.90
18690;DHT22;9782;52.930;15.562;2023-04-24T11:43:59;21.50;99.90
18690;DHT22;9782;52.930;15.562;2023-04-24T11:46:28;21.30;99.90
18690;DHT22;9782;52.930;15.562;2023-04-24T11:48:56;21.30;99.90
18690;DHT22;9782;52.930;15.562;2023-04-24T11:51:23;21.20;99.90
18690;DHT22;9782;52.930;15.562;2023-04-24T11:53:50;21.20;99.90
18690;DHT22;9782;52.930;15.562;2023-04-24T11:56:19;21.30;99.90
18690;DHT22;9782;52.930;15.562;2023-04-24T11:58:48;21.30;99.90
18690;DHT22;9782;52.930;15.562;2023-04-24T12:01:15;21.30;99.90
18690;DHT22;9782;52.930;15.562;2023-04-24T12:03:43;21.30;99.90
18690;DHT22;9782;52.930;15.562;2023-04-24T12:06:13;21.30;99.90
18690;DHT22;9782;52.930;15.562;2023-04-24T12:08:40;21.30;99.90
18690;DHT22;9782;52.930;15.562;2023-04-24T12:11:08;21.30;99.90
18690;DHT22;9782;52.930;15.562;2023-04-24T12:13:36;21.40;99.90
18690;DHT22;9782;52.930;15.562;2023-04-24T12:16:04;21.40;99.90
18690;DHT22;9782;52.930;15.562;2023-04-24T12:18:31;21.50;99.90
18690;DHT22;9782;52.930;15.562;2023-04-24T12:21:18;21.50;99.90
18690;DHT22;9782;52.930;15.562;2023-04-24T12:23:45;21.60;99.90
18690;DHT22;9782;52.930;15.562;2023-04-24T12:26:16;21.50;99.90
18690;DHT22;9782;52.930;15.562;2023-04-24T12:28:47;21.50;99.90
18690;DHT22;9782;52.930;15.562;2023-04-24T12:31:14;21.50;99.90
18690;DHT22;9782;52.930;15.562;2023-04-24T12:33:41;21.40;99.90
18690;DHT22;9782;52.930;15.562;2023-04-24T12:36:10;21.30;99.90
18690;DHT22;9782;52.930;15.562;2023-04-24T12:38:38;21.20;99.90
18690;DHT22;9782;52.930;15.562;2023-04-24T12:41:08;21.00;99.90
18690;DHT22;9782;52.930;15.562;2023-04-24T12:43:35;20.90;99.90
18690;DHT22;9782;52.930;15.562;2023-04-24T12:46:04;20.80;99.90
18690;DHT22;9782;52.930;15.562;2023-04-24T12:48:31;20.70;99.90
18690;DHT22;9782;52.930;15.562;2023-04-24T12:50:59;20.60;99.90
18690;DHT22;9782;52.930;15.562;2023-04-24T12:53:27;20.60;99.90
18690;DHT22;9782;52.930;15.562;2023-04-24T12:55:56;20.60;99.90
18690;DHT22;9782;52.930;15.562;2023-04-24T12:58:23;20.60;99.90
18690;DHT22;9782;52.930;15.562;2023-04-24T13:00:50;20.60;99.90
18690;DHT22;9782;52.930;15.562;2023-04-24T13:03:19;20.70;99.90
18690;DHT22;9782;52.930;15.562;2023-04-24T13:05:48;20.90;99.90
18690;DHT22;9782;52.930;15.562;2023-04-24T13:08:15;21.10;99.90
18690;DHT22;9782;52.930;15.562;2023-04-24T13:10:41;21.40;99.90
18690;DHT22;9782;52.930;15.562;2023-04-24T13:13:08;21.70;99.90
18690;DHT22;9782;52.930;15.562;2023-04-24T13:15:35;22.10;99.90
18690;DHT22;9782;52.930;15.562;2023-04-24T13:18:03;22.30;99.90
18690;DHT22;9782;52.930;15.562;2023-04-24T13:20:31;22.50;99.90
18690;DHT22;9782;52.930;15.562;2023-04-24T13:23:01;22.60;99.90
18690;DHT22;9782;52.930;15.562;2023-04-24T13:25:27;22.50;99.90
18690;DHT22;9782;52.930;15.562;2023-04-24T13:27:55;22.30;99.90
18690;DHT22;9782;52.930;15.562;2023-04-24T13:30:22;22.20;99.90
18690;DHT22;9782;52.930;15.562;2023-04-24T13:32:49;22.10;99.90
18690;DHT22;9782;52.930;15.562;2023-04-24T13:35:16;22.10;99.90
18690;DHT22;9782;52.930;15.562;2023-04-24T13:37:44;22.10;99.90
18690;DHT22;9782;52.930;15.562;2023-04-24T13:40:11;22.10;99.90
18690;DHT22;9782;52.930;15.562;2023-04-24T13:42:38;22.10;99.90
18690;DHT22;9782;52.930;15.562;2023-04-24T13:45:06;22.30;99.90
18690;DHT22;9782;52.930;15.562;2023-04-24T13:47:33;22.50;99.90
18690;DHT22;9782;52.930;15.562;2023-04-24T13:50:00;22.70;99.90
18690;DHT22;9782;52.930;15.562;2023-04-24T13:52:28;22.90;99.90
18690;DHT22;9782;52.930;15.562;2023-04-24T13:54:56;23.10;99.90
18690;DHT22;9782;52.930;15.562;2023-04-24T13:57:23;23.10;99.90
18690;DHT22;9782;52.930;15.562;2023-04-24T13:59:50;22.90;99.90
18690;DHT22;9782;52.930;15.562;2023-04-24T14:02:17;22.70;99.90
18690;DHT22;9782;52.930;15.562;2023-04-24T14:04:44;22.60;99.90
18690;DHT22;9782;52.930;15.562;2023-04-24T14:07:12;22.50;99.90
18690;DHT22;9782;52.930;15.562;2023-04-24T14:09:39;22.30;99.90
18690;DHT22;9782;52.930;15.562;2023-04-24T14:12:07;22.20;99.90
18690;DHT22;9782;52.930;15.562;2023-04-24T14:14:35;22.10;99.90
18690;DHT22;9782;52.930;15.562;2023-04-24T14:17:02;22.00;99.90
18690;DHT22;9782;52.930;15.562;2023-04-24T14:19:29;21.90;99.90
18690;DHT22;9782;52.930;15.562;2023-04-24T14:21:55;21.90;99.90
18690;DHT22;9782;52.930;15.562;2023-04-24T14:24:23;21.90;99.90
18690;DHT22;9782;52.930;15.562;2023-04-24T14:26:51;22.00;99.90
18690;DHT22;9782;52.930;15.562;2023-04-24T14:29:19;22.20;99.90
18690;DHT22;9782;52.930;15.562;2023-04-24T14:31:46;22.20;99.90
18690;DHT22;9782;52.930;15.562;2023-04-24T14:34:14;22.10;99.90
18690;DHT22;9782;52.930;15.562;2023-04-24T14:36:41;22.00;99.90
18690;DHT22;9782;52.930;15.562;2023-04-24T14:39:08;21.80;99.90
18690;DHT22;9782;52.930;15.562;2023-04-24T14:41:36;21.70;99.90
18690;DHT22;9782;52.930;15.562;2023-04-24T14:44:04;21.60;99.90
18690;DHT22;9782;52.930;15.562;2023-04-24T14:46:33;21.60;99.90
18690;DHT22;9782;52.930;15.562;2023-04-24T14:49:00;21.70;99.90
18690;DHT22;9782;52.930;15.562;2023-04-24T14:51:27;21.70;99.90
18690;DHT22;9782;52.930;15.562;2023-04-24T14:53:54;21.70;99.90
18690;DHT22;9782;52.930;15.562;2023-04-24T14:56:23;21.80;99.90
18690;DHT22;9782;52.930;15.562;2023-04-24T14:58:50;21.80;99.90
18690;DHT22;9782;52.930;15.562;2023-04-24T15:01:17;21.70;99.90
18690;DHT22;9782;52.930;15.562;2023-04-24T15:03:45;21.50;99.90
18690;DHT22;9782;52.930;15.562;2023-04-24T15:06:12;21.20;99.90
18690;DHT22;9782;52.930;15.562;2023-04-24T15:08:39;20.90;99.90
18690;DHT22;9782;52.930;15.562;2023-04-24T15:11:06;20.70;99.90
18690;DHT22;9782;52.930;15.562;2023-04-24T15:13:33;20.40;99.90
18690;DHT22;9782;52.930;15.562;2023-04-24T15:16:00;20.10;99.90
18690;DHT22;9782;52.930;15.562;2023-04-24T15:18:27;19.80;99.90
18690;DHT22;9782;52.930;15.562;2023-04-24T15:20:56;19.60;99.90
18690;DHT22;9782;52.930;15.562;2023-04-24T15:23:23;19.50;99.90
18690;DHT22;9782;52.930;15.562;2023-04-24T15:25:50;19.40;99.90
18690;DHT22;9782;52.930;15.562;2023-04-24T15:28:17;19.30;99.90
18690;DHT22;9782;52.930;15.562;2023-04-24T15:30:44;19.20;99.90
18690;DHT22;9782;52.930;15.562;2023-04-24T15:33:11;19.20;99.90
18690;DHT22;9782;52.930;15.562;2023-04-24T15:35:38;19.20;99.90
18690;DHT22;9782;52.930;15.562;2023-04-24T15:38:07;19.10;99.90
18690;DHT22;9782;52.930;15.562;2023-04-24T15:40:34;19.00;99.90
18690;DHT22;9782;52.930;15.562;2023-04-24T15:43:01;19.00;99.90
18690;DHT22;9782;52.930;15.562;2023-04-24T15:45:28;19.00;99.90
18690;DHT22;9782;52.930;15.562;2023-04-24T15:47:55;19.00;99.90
18690;DHT22;9782;52.930;15.562;2023-04-24T15:50:22;18.90;99.90
18690;DHT22;9782;52.930;15.562;2023-04-24T15:52:49;18.80;99.90
18690;DHT22;9782;52.930;15.562;2023-04-24T15:55:18;18.70;99.90
18690;DHT22;9782;52.930;15.562;2023-04-24T15:57:45;18.50;99.90
18690;DHT22;9782;52.930;15.562;2023-04-24T16:00:13;18.40;99.90
18690;DHT22;9782;52.930;15.562;2023-04-24T16:02:40;18.20;99.90
18690;DHT22;9782;52.930;15.562;2023-04-24T16:05:08;18.20;99.90
18690;DHT22;9782;52.930;15.562;2023-04-24T16:07:37;18.20;99.90
18690;DHT22;9782;52.930;15.562;2023-04-24T16:10:05;18.10;99.90
18690;DHT22;9782;52.930;15.562;2023-04-24T16:12:33;18.10;99.90
18690;DHT22;9782;52.930;15.562;2023-04-24T16:15:00;17.90;99.90
18690;DHT22;9782;52.930;15.562;2023-04-24T16:17:27;17.90;99.90
18690;DHT22;9782;52.930;15.562;2023-04-24T16:19:54;17.80;99.90
18690;DHT22;9782;52.930;15.562;2023-04-24T16:22:21;17.70;1.00
18690;DHT22;9782;52.930;15.562;2023-04-24T16:24:48;17.60;1.00
18690;DHT22;9782;52.930;15.562;2023-04-24T16:27:15;17.50;1.00
18690;DHT22;9782;52.930;15.562;2023-04-24T16:29:44;17.40;1.00
18690;DHT22;9782;52.930;15.562;2023-04-24T16:32:11;17.30;1.00
18690;DHT22;9782;52.930;15.562;2023-04-24T16:34:38;17.20;1.00
18690;DHT22;9782;52.930;15.562;2023-04-24T16:37:05;17.10;1.00
18690;DHT22;9782;52.930;15.562;2023-04-24T16:39:32;17.10;18.00
18690;DHT22;9782;52.930;15.562;2023-04-24T16:41:59;17.10;99.90
18690;DHT22;9782;52.930;15.562;2023-04-24T16:44:26;17.10;99.90
18690;DHT22;9782;52.930;15.562;2023-04-24T16:46:55;17.10;99.90
18690;DHT22;9782;52.930;15.562;2023-04-24T16:49:22;17.00;99.90
18690;DHT22;9782;52.930;15.562;2023-04-24T16:51:49;17.00;99.90
18690;DHT22;9782;52.930;15.562;2023-04-24T16:54:16;16.90;99.90
18690;DHT22;9782;52.930;15.562;2023-04-24T16:56:43;16.90;99.90
18690;DHT22;9782;52.930;15.562;2023-04-24T16:59:10;16.80;96.90
18690;DHT22;9782;52.930;15.562;2023-04-24T17:01:37;16.70;95.70
18690;DHT22;9782;52.930;15.562;2023-04-24T17:04:05;16.60;99.90
18690;DHT22;9782;52.930;15.562;2023-04-24T17:06:32;16.50;99.90
18690;DHT22;9782;52.930;15.562;2023-04-24T17:08:59;16.50;99.90
18690;DHT22;9782;52.930;15.562;2023-04-24T17:11:26;16.40;99.90
18690;DHT22;9782;52.930;15.562;2023-04-24T17:13:53;16.30;99.90
18690;DHT22;9782;52.930;15.562;2023-04-24T17:16:20;16.30;99.90
18690;DHT22;9782;52.930;15.562;2023-04-24T17:18:48;16.20;99.90
18690;DHT22;9782;52.930;15.562;2023-04-24T17:21:16;16.10;99.90
18690;DHT22;9782;52.930;15.562;2023-04-24T17:23:43;16.00;99.90
18690;DHT22;9782;52.930;15.562;2023-04-24T17:26:10;15.90;99.90
18690;DHT22;9782;52.930;15.562;2023-04-24T17:28:37;15.90;1.00
18690;DHT22;9782;52.930;15.562;2023-04-24T17:31:04;15.80;1.00
18690;DHT22;9782;52.930;15.562;2023-04-24T17:33:31;15.70;1.00
18690;DHT22;9782;52.930;15.562;2023-04-24T17:35:59;15.60;1.00
18690;DHT22;9782;52.930;15.562;2023-04-24T17:38:28;15.50;1.00
18690;DHT22;9782;52.930;15.562;2023-04-24T17:40:55;15.40;1.00
18690;DHT22;9782;52.930;15.562;2023-04-24T17:43:23;15.30;1.00
18690;DHT22;9782;52.930;15.562;2023-04-24T17:45:51;15.20;45.00
18690;DHT22;9782;52.930;15.562;2023-04-24T17:48:20;15.20;99.90
18690;DHT22;9782;52.930;15.562;2023-04-24T17:50:47;15.10;99.90
18690;DHT22;9782;52.930;15.562;2023-04-24T17:53:15;15.10;99.90
18690;DHT22;9782;52.930;15.562;2023-04-24T17:55:44;15.00;99.90
18690;DHT22;9782;52.930;15.562;2023-04-24T17:58:12;14.90;1.00
18690;DHT22;9782;52.930;15.562;2023-04-24T18:00:40;14.90;1.00
18690;DHT22;9782;52.930;15.562;2023-04-24T18:03:07;14.80;1.00
18690;DHT22;9782;52.930;15.562;2023-04-24T18:05:36;14.80;1.00
18690;DHT22;9782;52.930;15.562;2023-04-24T18:08:04;14.70;1.00
18690;DHT22;9782;52.930;15.562;2023-04-24T18:10:32;14.70;1.00
18690;DHT22;9782;52.930;15.562;2023-04-24T18:13:02;14.70;95.50
18690;DHT22;9782;52.930;15.562;2023-04-24T18:15:29;14.60;99.90
18690;DHT22;9782;52.930;15.562;2023-04-24T18:17:56;14.70;99.90
18690;DHT22;9782;52.930;15.562;2023-04-24T18:20:23;14.60;99.90
18690;DHT22;9782;52.930;15.562;2023-04-24T18:22:50;14.60;1.00
18690;DHT22;9782;52.930;15.562;2023-04-24T18:25:17;14.60;1.00
18690;DHT22;9782;52.930;15.562;2023-04-24T18:27:50;14.50;1.00
18690;DHT22;9782;52.930;15.562;2023-04-24T18:30:19;14.50;1.00
18690;DHT22;9782;52.930;15.562;2023-04-24T18:32:47;14.50;1.00
18690;DHT22;9782;52.930;15.562;2023-04-24T18:35:15;14.50;65.50
18690;DHT22;9782;52.930;15.562;2023-04-24T18:37:43;14.40;99.90
18690;DHT22;9782;52.930;15.562;2023-04-24T18:40:11;14.30;58.70
18690;DHT22;9782;52.930;15.562;2023-04-24T18:42:38;14.30;5.70
18690;DHT22;9782;52.930;15.562;2023-04-24T18:45:06;14.30;1.00
18690;DHT22;9782;52.930;15.562;2023-04-24T18:47:35;14.20;99.90
18690;DHT22;9782;52.930;15.562;2023-04-24T18:50:02;14.10;99.90
18690;DHT22;9782;52.930;15.562;2023-04-24T18:52:29;14.00;1.00
18690;DHT22;9782;52.930;15.562;2023-04-24T18:54:56;14.00;1.00
18690;DHT22;9782;52.930;15.562;2023-04-24T18:57:23;14.00;1.00
18690;DHT22;9782;52.930;15.562;2023-04-24T18:59:50;13.90;1.00
18690;DHT22;9782;52.930;15.562;2023-04-24T19:02:17;13.90;1.00
18690;DHT22;9782;52.930;15.562;2023-04-24T19:04:46;13.80;1.00
18690;DHT22;9782;52.930;15.562;2023-04-24T19:07:12;13.70;1.00
18690;DHT22;9782;52.930;15.562;2023-04-24T19:09:39;13.60;1.00
18690;DHT22;9782;52.930;15.562;2023-04-24T19:12:06;13.50;1.00
18690;DHT22;9782;52.930;15.562;2023-04-24T19:14:33;13.40;1.00
18690;DHT22;9782;52.930;15.562;2023-04-24T19:17:00;13.30;1.00
18690;DHT22;9782;52.930;15.562;2023-04-24T19:19:27;13.30;82.90
18690;DHT22;9782;52.930;15.562;2023-04-24T19:21:57;13.20;96.80
18690;DHT22;9782;52.930;15.562;2023-04-24T19:24:24;13.10;1.00
18690;DHT22;9782;52.930;15.562;2023-04-24T19:26:53;13.10;1.00
18690;DHT22;9782;52.930;15.562;2023-04-24T19:29:21;13.00;1.00
18690;DHT22;9782;52.930;15.562;2023-04-24T19:31:48;12.90;99.90
18690;DHT22;9782;52.930;15.562;2023-04-24T19:34:15;12.80;99.90
18690;DHT22;9782;52.930;15.562;2023-04-24T19:36:42;12.70;99.90
18690;DHT22;9782;52.930;15.562;2023-04-24T19:39:10;12.60;1.00
18690;DHT22;9782;52.930;15.562;2023-04-24T19:41:37;12.60;1.00
18690;DHT22;9782;52.930;15.562;2023-04-24T19:44:04;12.50;99.90
18690;DHT22;9782;52.930;15.562;2023-04-24T19:46:32;12.40;1.00
18690;DHT22;9782;52.930;15.562;2023-04-24T19:48:59;12.30;1.00
18690;DHT22;9782;52.930;15.562;2023-04-24T19:51:26;12.30;99.90
18690;DHT22;9782;52.930;15.562;2023-04-24T19:53:53;12.20;1.00
18690;DHT22;9782;52.930;15.562;2023-04-24T19:56:21;12.20;1.00
18690;DHT22;9782;52.930;15.562;2023-04-24T19:58:48;12.20;1.00
18690;DHT22;9782;52.930;15.562;2023-04-24T20:01:15;12.10;1.00
18690;DHT22;9782;52.930;15.562;2023-04-24T20:03:42;12.10;99.90
18690;DHT22;9782;52.930;15.562;2023-04-24T20:06:10;12.00;99.90
18690;DHT22;9782;52.930;15.562;2023-04-24T20:08:37;12.00;93.60
18690;DHT22;9782;52.930;15.562;2023-04-24T20:11:04;12.00;1.00
18690;DHT22;9782;52.930;15.562;2023-04-24T20:13:32;12.00;1.00
18690;DHT22;9782;52.930;15.562;2023-04-24T20:15:59;12.00;1.00
18690;DHT22;9782;52.930;15.562;2023-04-24T20:18:26;12.00;1.00
18690;DHT22;9782;52.930;15.562;2023-04-24T20:20:53;12.00;1.00
18690;DHT22;9782;52.930;15.562;2023-04-24T20:23:24;12.00;1.00
18690;DHT22;9782;52.930;15.562;2023-04-24T20:25:51;12.00;1.00
18690;DHT22;9782;52.930;15.562;2023-04-24T20:28:22;11.90;1.00
